Milouin — FT9009 — position and weather

sailwx.info

Track history (hours):
 
Tides and Currents Weather Stations Pressure Air Temp Water Temp Dewpoint Dewpoint Depression Visibility Wind Speed Wind Dir Waves Ship Positions

Milouin

Last reported at 2016-Jul-29 22:33 UTC. Time now 2016-Jul-29 23:38 UTC.
Position N 47°17' W 002°01'.

Length 36 m; draft 2.5 m.

Type: Ship. MMSI: 227003190.

Date/timePositionNaut miles runAvg speedWind from/ knotsBaromVisibWave heightAir tempDewpointWater temp
2016-Jul-29 22:33N 47°17' W 002°01'0 0.0
2016-Jul-29 21:32N 47°17' W 002°01'0 0.0
2016-Jul-29 20:33N 47°17' W 002°01'0 0.0
2016-Jul-29 19:33N 47°17' W 002°01'0 0.0
2016-Jul-29 18:33N 47°17' W 002°01'0 0.0
2016-Jul-29 17:33N 47°17' W 002°01'0 0.0
2016-Jul-29 16:33N 47°17' W 002°01'6 6.2
2016-Jul-29 15:33N 47°16' W 001°52'2 2.1
2016-Jul-29 14:33N 47°14' W 001°50'0 0.2
2016-Jul-29 13:33N 47°15' W 001°51'0 0.1
2016-Jul-29 12:33N 47°15' W 001°51'0 0.0
2016-Jul-29 11:33N 47°15' W 001°51'0 0.1
2016-Jul-29 10:33N 47°15' W 001°51'0 0.2
2016-Jul-29 09:33N 47°14' W 001°51'0 0.2
2016-Jul-29 08:33N 47°15' W 001°51'5 5.1
2016-Jul-29 07:34N 47°17' W 001°57'3 2.7
2016-Jul-29 06:33N 47°17' W 002°01'0 0.0
2016-Jul-29 05:32N 47°17' W 002°01'0 0.0
2016-Jul-29 04:32N 47°17' W 002°01'0 0.0
2016-Jul-29 01:13N 47°17' W 002°01'0 0.0
2016-Jul-29 00:27N 47°17' W 002°01'0 0.0
2016-Jul-28 23:33N 47°17' W 002°01'0 0.0
2016-Jul-28 22:31N 47°17' W 002°01'0 0.0
2016-Jul-28 21:30N 47°17' W 002°01'0 0.0
2016-Jul-28 20:32N 47°17' W 002°01'0 0.0
2016-Jul-28 19:32N 47°17' W 002°01'0 0.0
2016-Jul-28 18:33N 47°17' W 002°01'0 0.0
2016-Jul-28 17:30N 47°17' W 002°01'0 0.0
2016-Jul-28 16:20N 47°17' W 002°01'7 8.8
2016-Jul-28 15:33N 47°16' W 001°51'1 1.1
2016-Jul-28 14:33N 47°15' W 001°51'0 0.1
2016-Jul-28 13:33N 47°15' W 001°51'0 0.1
2016-Jul-28 12:33N 47°15' W 001°51'0 0.1
2016-Jul-28 11:33N 47°15' W 001°51'0 0.1
2016-Jul-28 10:33N 47°15' W 001°51'3 3.0
2016-Jul-28 09:33N 47°17' W 001°54'5 4.4
2016-Jul-28 08:26N 47°17' W 002°01'0 0.0
2016-Jul-28 07:32N 47°17' W 002°01'0 0.0
2016-Jul-28 06:30N 47°17' W 002°01'0 0.0
2016-Jul-28 05:32N 47°17' W 002°01'0 0.0
2016-Jul-28 04:34N 47°17' W 002°01'0 0.0
2016-Jul-28 03:28N 47°17' W 002°01'0 0.0
2016-Jul-28 01:16N 47°17' W 002°01'0 0.0
2016-Jul-28 00:11N 47°17' W 002°01'0 0.0
2016-Jul-27 23:30N 47°17' W 002°01'0 0.0
2016-Jul-27 22:33N 47°17' W 002°01'0 0.0
2016-Jul-27 21:33N 47°17' W 002°01'0 0.0
2016-Jul-27 20:32N 47°17' W 002°01'0 0.0
2016-Jul-27 19:33N 47°17' W 002°01'0 0.0
2016-Jul-27 18:33N 47°17' W 002°01'0 0.0
2016-Jul-27 17:33N 47°17' W 002°01'3 1.6
2016-Jul-27 15:33N 47°18' W 002°06'2 2.1
2016-Jul-27 14:32N 47°18' W 002°09'0 0.3
2016-Jul-27 13:32N 47°18' W 002°08'0 0.1
2016-Jul-27 12:30N 47°18' W 002°09'0 0.3
2016-Jul-27 11:33N 47°18' W 002°09'0 0.4
2016-Jul-27 10:33N 47°18' W 002°08'1 0.7
2016-Jul-27 09:33N 47°18' W 002°09'1 1.4
2016-Jul-27 08:33N 47°18' W 002°07'4 3.5
2016-Jul-27 07:21N 47°17' W 002°01'0 0.0
2016-Jul-27 06:33N 47°17' W 002°01'0 0.0
2016-Jul-27 05:33N 47°17' W 002°01'0 0.0
2016-Jul-27 04:33N 47°17' W 002°01'0 0.0
2016-Jul-27 03:27N 47°17' W 002°01'0 0.0
2016-Jul-27 02:26N 47°17' W 002°01'0 0.0
2016-Jul-27 01:33N 47°17' W 002°01'0 0.0
2016-Jul-27 00:33N 47°17' W 002°01'0 0.0
2016-Jul-26 23:31N 47°17' W 002°01'0 0.0
2016-Jul-26 22:33N 47°17' W 002°01'0 0.0
2016-Jul-26 21:32N 47°17' W 002°01'0 0.0
2016-Jul-26 20:33N 47°17' W 002°01'0 0.0
2016-Jul-26 19:33N 47°17' W 002°01'0 0.0
2016-Jul-26 18:33N 47°17' W 002°01'0 0.0
2016-Jul-26 17:15N 47°17' W 002°01'3 1.8
2016-Jul-26 15:33N 47°17' W 001°57'5 5.3
2016-Jul-26 14:33N 47°14' W 001°50'0 0.3
2016-Jul-26 13:30N 47°14' W 001°50'0 0.3
2016-Jul-26 12:26N 47°15' W 001°51'0 0.2
2016-Jul-26 11:33N 47°15' W 001°51'0 0.3
2016-Jul-26 10:34N 47°15' W 001°51'1 1.5
2016-Jul-26 09:33N 47°16' W 001°52'6 6.2
2016-Jul-26 08:30N 47°17' W 002°01'0 0.0
2016-Jul-26 07:33N 47°17' W 002°01'0 0.0
2016-Jul-26 06:33N 47°17' W 002°01'0 0.0
2016-Jul-26 05:33N 47°17' W 002°01'0 0.0
2016-Jul-26 04:33N 47°17' W 002°01'0 0.0
2016-Jul-26 03:34N 47°17' W 002°01'0 0.0
2016-Jul-26 02:33N 47°17' W 002°01'0 0.0
2016-Jul-26 01:31N 47°17' W 002°01'0 0.0
2016-Jul-26 00:33N 47°17' W 002°01'0 0.0
2016-Jul-25 23:32N 47°17' W 002°01'0 0.0
2016-Jul-25 22:28N 47°17' W 002°01'0 0.0
2016-Jul-25 21:33N 47°17' W 002°01'0 0.0
2016-Jul-25 20:25N 47°17' W 002°01'0 0.0
2016-Jul-25 19:29N 47°17' W 002°01'0 0.0
2016-Jul-25 18:32N 47°17' W 002°01'0 0.0
2016-Jul-25 16:22N 47°17' W 002°01'1 0.6
2016-Jul-25 14:32N 47°18' W 002°03'4 4.1
2016-Jul-25 13:32N 47°18' W 002°09'1 0.9
2016-Jul-25 12:33N 47°17' W 002°10'0 0.1
2016-Jul-25 11:28N 47°17' W 002°10'0 0.1
2016-Jul-25 10:33N 47°17' W 002°09'1 0.6
2016-Jul-25 09:32N 47°18' W 002°09'0 0.2
2016-Jul-25 08:33N 47°18' W 002°09'0 0.1
2016-Jul-25 07:33N 47°18' W 002°09'1 0.6
2016-Jul-25 06:33N 47°18' W 002°08'5 4.9
2016-Jul-25 05:34N 47°17' W 002°01'0 0.0
2016-Jul-25 04:34N 47°17' W 002°01'0 0.0
2016-Jul-25 03:33N 47°17' W 002°01'0 0.0
2016-Jul-25 02:33N 47°17' W 002°01'0 0.0
2016-Jul-25 01:34N 47°17' W 002°01'0 0.0
2016-Jul-25 00:33N 47°17' W 002°01'0 0.0
2016-Jul-24 23:34N 47°17' W 002°01'0 0.0
2016-Jul-24 22:34N 47°17' W 002°01'0 0.0
2016-Jul-24 21:34N 47°17' W 002°01'0 0.0
2016-Jul-24 20:33N 47°17' W 002°01'0 0.0
2016-Jul-24 19:33N 47°17' W 002°01'0 0.0
2016-Jul-24 18:33N 47°17' W 002°01'0 0.0
2016-Jul-24 17:33N 47°17' W 002°01'0 0.0
2016-Jul-24 16:34N 47°17' W 002°01'0 0.0
2016-Jul-24 15:33N 47°17' W 002°01'0 0.0
2016-Jul-24 14:33N 47°17' W 002°01'4 3.9
2016-Jul-24 13:33N 47°18' W 002°07'2 1.6
2016-Jul-24 12:34N 47°18' W 002°09'0 0.1
2016-Jul-24 11:34N 47°18' W 002°09'0 0.1
2016-Jul-24 10:33N 47°18' W 002°09'0 0.1
2016-Jul-24 09:33N 47°18' W 002°09'0 0.1
2016-Jul-24 08:33N 47°18' W 002°09'0 0.2
2016-Jul-24 07:33N 47°18' W 002°09'0 0.2
2016-Jul-24 06:33N 47°18' W 002°09'3 3.3
2016-Jul-24 05:33N 47°18' W 002°04'2 2.1
2016-Jul-24 04:34N 47°17' W 002°01'0 0.0
2016-Jul-24 03:33N 47°17' W 002°01'0 0.0
2016-Jul-24 02:33N 47°17' W 002°01'0 0.0
2016-Jul-24 01:34N 47°17' W 002°01'0 0.0
2016-Jul-24 00:34N 47°17' W 002°01'0 0.0
2016-Jul-23 23:34N 47°17' W 002°01'0 0.0
2016-Jul-23 22:33N 47°17' W 002°01'0 0.0
2016-Jul-23 21:33N 47°17' W 002°01'0 0.0
2016-Jul-23 20:33N 47°17' W 002°01'0 0.0
2016-Jul-23 19:34N 47°17' W 002°01'0 0.0
2016-Jul-23 18:34N 47°17' W 002°01'0 0.0
2016-Jul-23 17:33N 47°17' W 002°01'0 0.0
2016-Jul-23 16:33N 47°17' W 002°01'0 0.0
2016-Jul-23 15:33N 47°17' W 002°01'1 0.7
2016-Jul-23 14:33N 47°17' W 002°00'7 7.0
2016-Jul-23 13:33N 47°15' W 001°51'0 0.0
2016-Jul-23 12:33N 47°15' W 001°51'0 0.1
2016-Jul-23 11:33N 47°15' W 001°51'0 0.0
2016-Jul-23 10:33N 47°15' W 001°51'0 0.0
2016-Jul-23 09:33N 47°15' W 001°51'1 0.7
2016-Jul-23 08:34N 47°14' W 001°50'0 0.0
2016-Jul-23 07:33N 47°14' W 001°50'0 0.0
2016-Jul-23 06:33N 47°14' W 001°50'8 4.1
2016-Jul-23 04:33N 47°17' W 002°01'0 0.0
2016-Jul-23 03:33N 47°17' W 002°01'0 0.0
2016-Jul-23 02:33N 47°17' W 002°01'0 0.0
2016-Jul-23 01:34N 47°17' W 002°01'0 0.0
2016-Jul-23 00:33N 47°17' W 002°01'0 0.0
2016-Jul-22 23:33N 47°17' W 002°01'0 0.0
2016-Jul-22 22:34N 47°17' W 002°01'0 0.0
2016-Jul-22 21:33N 47°17' W 002°01'0 0.0
2016-Jul-22 20:33N 47°17' W 002°01'0 0.0
2016-Jul-22 19:33N 47°17' W 002°01'0 0.0
2016-Jul-22 18:33N 47°17' W 002°01'0 0.0
2016-Jul-22 17:34N 47°17' W 002°01'0 0.0
2016-Jul-22 16:33N 47°17' W 002°01'0 0.0
2016-Jul-22 15:33N 47°17' W 002°01'0 0.4
2016-Jul-22 14:33N 47°17' W 002°01'0 0.1
2016-Jul-22 10:27N 47°17' W 002°01'0 0.1
2016-Jul-22 09:33N 47°17' W 002°01'0 0.0
2016-Jul-22 08:32N 47°17' W 002°01'0 0.0
2016-Jul-22 05:33N 47°17' W 002°01'0 0.0
2016-Jul-22 04:33N 47°17' W 002°01'0 0.0
2016-Jul-22 03:33N 47°17' W 002°01'0 0.0
2016-Jul-22 02:34N 47°17' W 002°01'0 0.0
2016-Jul-22 01:33N 47°17' W 002°01'0 0.0
2016-Jul-22 00:33N 47°17' W 002°01'0 0.0
2016-Jul-21 23:34N 47°17' W 002°01'0 0.0
2016-Jul-21 22:34N 47°17' W 002°01'0 0.0
2016-Jul-21 21:33N 47°17' W 002°01'0 0.0
2016-Jul-21 20:33N 47°17' W 002°01'0 0.0
2016-Jul-21 19:33N 47°17' W 002°01'0 0.0
2016-Jul-21 18:33N 47°17' W 002°01'0 0.0
2016-Jul-21 17:33N 47°17' W 002°01'0 0.0
2016-Jul-21 16:33N 47°17' W 002°01'0 0.0
2016-Jul-21 15:33N 47°17' W 002°01'0 0.0
2016-Jul-21 14:34N 47°17' W 002°01'0 0.0
2016-Jul-21 13:33N 47°17' W 002°01'0 0.0
2016-Jul-21 12:33N 47°17' W 002°01'5 4.8
2016-Jul-21 11:31N 47°18' W 002°09'0 0.3
2016-Jul-21 10:22N 47°18' W 002°09'0 0.1
2016-Jul-21 09:30N 47°18' W 002°09'1 0.8
2016-Jul-21 08:33N 47°18' W 002°08'0 0.1
2016-Jul-21 07:33N 47°18' W 002°08'0 0.1
2016-Jul-21 06:33N 47°18' W 002°08'0 0.2
2016-Jul-21 05:33N 47°18' W 002°07'4 4.4
2016-Jul-21 04:33N 47°17' W 002°01'0 0.0
2016-Jul-21 03:33N 47°17' W 002°01'0 0.0
2016-Jul-21 02:33N 47°17' W 002°01'0 0.0
2016-Jul-21 01:34N 47°17' W 002°01'0 0.0
2016-Jul-21 00:33N 47°17' W 002°01'0 0.0
2016-Jul-20 23:33N 47°17' W 002°01'0 0.0
2016-Jul-20 22:33N 47°17' W 002°01'0 0.0
2016-Jul-20 21:33N 47°17' W 002°01'0 0.0
2016-Jul-20 20:33N 47°17' W 002°01'0 0.0
2016-Jul-20 19:31N 47°17' W 002°01'0 0.0
2016-Jul-20 18:24N 47°17' W 002°01'0 0.0
2016-Jul-20 17:32N 47°17' W 002°01'0 0.0
2016-Jul-20 16:33N 47°17' W 002°01'0 0.0
2016-Jul-20 15:33N 47°17' W 002°01'0 0.0
2016-Jul-20 14:32N 47°17' W 002°01'0 0.0
2016-Jul-20 13:33N 47°17' W 002°01'0 0.0
2016-Jul-20 12:33N 47°17' W 002°01'5 5.5
2016-Jul-20 11:33N 47°17' W 001°53'0 0.0
2016-Jul-20 10:33N 47°17' W 001°53'3 2.7
2016-Jul-20 09:33N 47°15' W 001°51'0 0.1
2016-Jul-20 08:33N 47°15' W 001°51'0 0.4
2016-Jul-20 07:33N 47°14' W 001°50'0 0.0
2016-Jul-20 06:34N 47°14' W 001°50'0 0.2
2016-Jul-20 05:33N 47°14' W 001°50'3 3.4
2016-Jul-20 04:33N 47°12' W 001°46'0 0.0
2016-Jul-20 03:33N 47°12' W 001°46'0 0.0
2016-Jul-20 02:33N 47°12' W 001°46'0 0.0
2016-Jul-20 01:33N 47°12' W 001°46'0 0.0
2016-Jul-20 00:34N 47°12' W 001°46'0 0.0
2016-Jul-19 23:33N 47°12' W 001°46'0 0.0
2016-Jul-19 22:33N 47°12' W 001°46'  
Track history (hours):
 
Tides and Currents Weather Stations Pressure Air Temp Water Temp Dewpoint Dewpoint Depression Visibility Wind Speed Wind Dir Waves Ship Positions

Milouin

Last reported at 2016-Jul-29 22:33 UTC. Time now 2016-Jul-29 23:38 UTC.
Position N 47°17' W 002°01'.

Length 36 m; draft 2.5 m.

Type: Ship. MMSI: 227003190.

Date/timePositionNaut miles runAvg speedWind from/ knotsBaromVisibWave heightAir tempDewpointWater temp
2016-Jul-29 22:33N 47°17' W 002°01'0 0.0
2016-Jul-29 21:32N 47°17' W 002°01'0 0.0
2016-Jul-29 20:33N 47°17' W 002°01'0 0.0
2016-Jul-29 19:33N 47°17' W 002°01'0 0.0
2016-Jul-29 18:33N 47°17' W 002°01'0 0.0
2016-Jul-29 17:33N 47°17' W 002°01'0 0.0
2016-Jul-29 16:33N 47°17' W 002°01'6 6.2
2016-Jul-29 15:33N 47°16' W 001°52'2 2.1
2016-Jul-29 14:33N 47°14' W 001°50'0 0.2
2016-Jul-29 13:33N 47°15' W 001°51'0 0.1
2016-Jul-29 12:33N 47°15' W 001°51'0 0.0
2016-Jul-29 11:33N 47°15' W 001°51'0 0.1
2016-Jul-29 10:33N 47°15' W 001°51'0 0.2
2016-Jul-29 09:33N 47°14' W 001°51'0 0.2
2016-Jul-29 08:33N 47°15' W 001°51'5 5.1
2016-Jul-29 07:34N 47°17' W 001°57'3 2.7
2016-Jul-29 06:33N 47°17' W 002°01'0 0.0
2016-Jul-29 05:32N 47°17' W 002°01'0 0.0
2016-Jul-29 04:32N 47°17' W 002°01'0 0.0
2016-Jul-29 01:13N 47°17' W 002°01'0 0.0
2016-Jul-29 00:27N 47°17' W 002°01'0 0.0
2016-Jul-28 23:33N 47°17' W 002°01'0 0.0
2016-Jul-28 22:31N 47°17' W 002°01'0 0.0
2016-Jul-28 21:30N 47°17' W 002°01'0 0.0
2016-Jul-28 20:32N 47°17' W 002°01'0 0.0
2016-Jul-28 19:32N 47°17' W 002°01'0 0.0
2016-Jul-28 18:33N 47°17' W 002°01'0 0.0
2016-Jul-28 17:30N 47°17' W 002°01'0 0.0
2016-Jul-28 16:20N 47°17' W 002°01'7 8.8
2016-Jul-28 15:33N 47°16' W 001°51'1 1.1
2016-Jul-28 14:33N 47°15' W 001°51'0 0.1
2016-Jul-28 13:33N 47°15' W 001°51'0 0.1
2016-Jul-28 12:33N 47°15' W 001°51'0 0.1
2016-Jul-28 11:33N 47°15' W 001°51'0 0.1
2016-Jul-28 10:33N 47°15' W 001°51'3 3.0
2016-Jul-28 09:33N 47°17' W 001°54'5 4.4
2016-Jul-28 08:26N 47°17' W 002°01'0 0.0
2016-Jul-28 07:32N 47°17' W 002°01'0 0.0
2016-Jul-28 06:30N 47°17' W 002°01'0 0.0
2016-Jul-28 05:32N 47°17' W 002°01'0 0.0
2016-Jul-28 04:34N 47°17' W 002°01'0 0.0
2016-Jul-28 03:28N 47°17' W 002°01'0 0.0
2016-Jul-28 01:16N 47°17' W 002°01'0 0.0
2016-Jul-28 00:11N 47°17' W 002°01'0 0.0
2016-Jul-27 23:30N 47°17' W 002°01'0 0.0
2016-Jul-27 22:33N 47°17' W 002°01'0 0.0
2016-Jul-27 21:33N 47°17' W 002°01'0 0.0
2016-Jul-27 20:32N 47°17' W 002°01'0 0.0
2016-Jul-27 19:33N 47°17' W 002°01'0 0.0
2016-Jul-27 18:33N 47°17' W 002°01'0 0.0
2016-Jul-27 17:33N 47°17' W 002°01'3 1.6
2016-Jul-27 15:33N 47°18' W 002°06'2 2.1
2016-Jul-27 14:32N 47°18' W 002°09'0 0.3
2016-Jul-27 13:32N 47°18' W 002°08'0 0.1
2016-Jul-27 12:30N 47°18' W 002°09'0 0.3
2016-Jul-27 11:33N 47°18' W 002°09'0 0.4
2016-Jul-27 10:33N 47°18' W 002°08'1 0.7
2016-Jul-27 09:33N 47°18' W 002°09'1 1.4
2016-Jul-27 08:33N 47°18' W 002°07'4 3.5
2016-Jul-27 07:21N 47°17' W 002°01'0 0.0
2016-Jul-27 06:33N 47°17' W 002°01'0 0.0
2016-Jul-27 05:33N 47°17' W 002°01'0 0.0
2016-Jul-27 04:33N 47°17' W 002°01'0 0.0
2016-Jul-27 03:27N 47°17' W 002°01'0 0.0
2016-Jul-27 02:26N 47°17' W 002°01'0 0.0
2016-Jul-27 01:33N 47°17' W 002°01'0 0.0
2016-Jul-27 00:33N 47°17' W 002°01'0 0.0
2016-Jul-26 23:31N 47°17' W 002°01'0 0.0
2016-Jul-26 22:33N 47°17' W 002°01'0 0.0
2016-Jul-26 21:32N 47°17' W 002°01'0 0.0
2016-Jul-26 20:33N 47°17' W 002°01'0 0.0
2016-Jul-26 19:33N 47°17' W 002°01'0 0.0
2016-Jul-26 18:33N 47°17' W 002°01'0 0.0
2016-Jul-26 17:15N 47°17' W 002°01'3 1.8
2016-Jul-26 15:33N 47°17' W 001°57'5 5.3
2016-Jul-26 14:33N 47°14' W 001°50'0 0.3
2016-Jul-26 13:30N 47°14' W 001°50'0 0.3
2016-Jul-26 12:26N 47°15' W 001°51'0 0.2
2016-Jul-26 11:33N 47°15' W 001°51'0 0.3
2016-Jul-26 10:34N 47°15' W 001°51'1 1.5
2016-Jul-26 09:33N 47°16' W 001°52'6 6.2
2016-Jul-26 08:30N 47°17' W 002°01'0 0.0
2016-Jul-26 07:33N 47°17' W 002°01'0 0.0
2016-Jul-26 06:33N 47°17' W 002°01'0 0.0
2016-Jul-26 05:33N 47°17' W 002°01'0 0.0
2016-Jul-26 04:33N 47°17' W 002°01'0 0.0
2016-Jul-26 03:34N 47°17' W 002°01'0 0.0
2016-Jul-26 02:33N 47°17' W 002°01'0 0.0
2016-Jul-26 01:31N 47°17' W 002°01'0 0.0
2016-Jul-26 00:33N 47°17' W 002°01'0 0.0
2016-Jul-25 23:32N 47°17' W 002°01'0 0.0
2016-Jul-25 22:28N 47°17' W 002°01'0 0.0
2016-Jul-25 21:33N 47°17' W 002°01'0 0.0
2016-Jul-25 20:25N 47°17' W 002°01'0 0.0
2016-Jul-25 19:29N 47°17' W 002°01'0 0.0
2016-Jul-25 18:32N 47°17' W 002°01'0 0.0
2016-Jul-25 16:22N 47°17' W 002°01'1 0.6
2016-Jul-25 14:32N 47°18' W 002°03'4 4.1
2016-Jul-25 13:32N 47°18' W 002°09'1 0.9
2016-Jul-25 12:33N 47°17' W 002°10'0 0.1
2016-Jul-25 11:28N 47°17' W 002°10'0 0.1
2016-Jul-25 10:33N 47°17' W 002°09'1 0.6
2016-Jul-25 09:32N 47°18' W 002°09'0 0.2
2016-Jul-25 08:33N 47°18' W 002°09'0 0.1
2016-Jul-25 07:33N 47°18' W 002°09'1 0.6
2016-Jul-25 06:33N 47°18' W 002°08'5 4.9
2016-Jul-25 05:34N 47°17' W 002°01'0 0.0
2016-Jul-25 04:34N 47°17' W 002°01'0 0.0
2016-Jul-25 03:33N 47°17' W 002°01'0 0.0
2016-Jul-25 02:33N 47°17' W 002°01'0 0.0
2016-Jul-25 01:34N 47°17' W 002°01'0 0.0
2016-Jul-25 00:33N 47°17' W 002°01'0 0.0
2016-Jul-24 23:34N 47°17' W 002°01'0 0.0
2016-Jul-24 22:34N 47°17' W 002°01'0 0.0
2016-Jul-24 21:34N 47°17' W 002°01'0 0.0
2016-Jul-24 20:33N 47°17' W 002°01'0 0.0
2016-Jul-24 19:33N 47°17' W 002°01'0 0.0
2016-Jul-24 18:33N 47°17' W 002°01'0 0.0
2016-Jul-24 17:33N 47°17' W 002°01'0 0.0
2016-Jul-24 16:34N 47°17' W 002°01'0 0.0
2016-Jul-24 15:33N 47°17' W 002°01'0 0.0
2016-Jul-24 14:33N 47°17' W 002°01'4 3.9
2016-Jul-24 13:33N 47°18' W 002°07'2 1.6
2016-Jul-24 12:34N 47°18' W 002°09'0 0.1
2016-Jul-24 11:34N 47°18' W 002°09'0 0.1
2016-Jul-24 10:33N 47°18' W 002°09'0 0.1
2016-Jul-24 09:33N 47°18' W 002°09'0 0.1
2016-Jul-24 08:33N 47°18' W 002°09'0 0.2
2016-Jul-24 07:33N 47°18' W 002°09'0 0.2
2016-Jul-24 06:33N 47°18' W 002°09'3 3.3
2016-Jul-24 05:33N 47°18' W 002°04'2 2.1
2016-Jul-24 04:34N 47°17' W 002°01'0 0.0
2016-Jul-24 03:33N 47°17' W 002°01'0 0.0
2016-Jul-24 02:33N 47°17' W 002°01'0 0.0
2016-Jul-24 01:34N 47°17' W 002°01'0 0.0
2016-Jul-24 00:34N 47°17' W 002°01'0 0.0
2016-Jul-23 23:34N 47°17' W 002°01'0 0.0
2016-Jul-23 22:33N 47°17' W 002°01'0 0.0
2016-Jul-23 21:33N 47°17' W 002°01'0 0.0
2016-Jul-23 20:33N 47°17' W 002°01'0 0.0
2016-Jul-23 19:34N 47°17' W 002°01'0 0.0
2016-Jul-23 18:34N 47°17' W 002°01'0 0.0
2016-Jul-23 17:33N 47°17' W 002°01'0 0.0
2016-Jul-23 16:33N 47°17' W 002°01'0 0.0
2016-Jul-23 15:33N 47°17' W 002°01'1 0.7
2016-Jul-23 14:33N 47°17' W 002°00'7 7.0
2016-Jul-23 13:33N 47°15' W 001°51'0 0.0
2016-Jul-23 12:33N 47°15' W 001°51'0 0.1
2016-Jul-23 11:33N 47°15' W 001°51'0 0.0
2016-Jul-23 10:33N 47°15' W 001°51'0 0.0
2016-Jul-23 09:33N 47°15' W 001°51'1 0.7
2016-Jul-23 08:34N 47°14' W 001°50'0 0.0
2016-Jul-23 07:33N 47°14' W 001°50'0 0.0
2016-Jul-23 06:33N 47°14' W 001°50'8 4.1
2016-Jul-23 04:33N 47°17' W 002°01'0 0.0
2016-Jul-23 03:33N 47°17' W 002°01'0 0.0
2016-Jul-23 02:33N 47°17' W 002°01'0 0.0
2016-Jul-23 01:34N 47°17' W 002°01'0 0.0
2016-Jul-23 00:33N 47°17' W 002°01'0 0.0
2016-Jul-22 23:33N 47°17' W 002°01'0 0.0
2016-Jul-22 22:34N 47°17' W 002°01'0 0.0
2016-Jul-22 21:33N 47°17' W 002°01'0 0.0
2016-Jul-22 20:33N 47°17' W 002°01'0 0.0
2016-Jul-22 19:33N 47°17' W 002°01'0 0.0
2016-Jul-22 18:33N 47°17' W 002°01'0 0.0
2016-Jul-22 17:34N 47°17' W 002°01'0 0.0
2016-Jul-22 16:33N 47°17' W 002°01'0 0.0
2016-Jul-22 15:33N 47°17' W 002°01'0 0.4
2016-Jul-22 14:33N 47°17' W 002°01'0 0.1
2016-Jul-22 10:27N 47°17' W 002°01'0 0.1
2016-Jul-22 09:33N 47°17' W 002°01'0 0.0
2016-Jul-22 08:32N 47°17' W 002°01'0 0.0
2016-Jul-22 05:33N 47°17' W 002°01'0 0.0
2016-Jul-22 04:33N 47°17' W 002°01'0 0.0
2016-Jul-22 03:33N 47°17' W 002°01'0 0.0
2016-Jul-22 02:34N 47°17' W 002°01'0 0.0
2016-Jul-22 01:33N 47°17' W 002°01'0 0.0
2016-Jul-22 00:33N 47°17' W 002°01'0 0.0
2016-Jul-21 23:34N 47°17' W 002°01'0 0.0
2016-Jul-21 22:34N 47°17' W 002°01'0 0.0
2016-Jul-21 21:33N 47°17' W 002°01'0 0.0
2016-Jul-21 20:33N 47°17' W 002°01'0 0.0
2016-Jul-21 19:33N 47°17' W 002°01'0 0.0
2016-Jul-21 18:33N 47°17' W 002°01'0 0.0
2016-Jul-21 17:33N 47°17' W 002°01'0 0.0
2016-Jul-21 16:33N 47°17' W 002°01'0 0.0
2016-Jul-21 15:33N 47°17' W 002°01'0 0.0
2016-Jul-21 14:34N 47°17' W 002°01'0 0.0
2016-Jul-21 13:33N 47°17' W 002°01'0 0.0
2016-Jul-21 12:33N 47°17' W 002°01'5 4.8
2016-Jul-21 11:31N 47°18' W 002°09'0 0.3
2016-Jul-21 10:22N 47°18' W 002°09'0 0.1
2016-Jul-21 09:30N 47°18' W 002°09'1 0.8
2016-Jul-21 08:33N 47°18' W 002°08'0 0.1
2016-Jul-21 07:33N 47°18' W 002°08'0 0.1
2016-Jul-21 06:33N 47°18' W 002°08'0 0.2
2016-Jul-21 05:33N 47°18' W 002°07'4 4.4
2016-Jul-21 04:33N 47°17' W 002°01'0 0.0
2016-Jul-21 03:33N 47°17' W 002°01'0 0.0
2016-Jul-21 02:33N 47°17' W 002°01'0 0.0
2016-Jul-21 01:34N 47°17' W 002°01'0 0.0
2016-Jul-21 00:33N 47°17' W 002°01'0 0.0
2016-Jul-20 23:33N 47°17' W 002°01'0 0.0
2016-Jul-20 22:33N 47°17' W 002°01'0 0.0
2016-Jul-20 21:33N 47°17' W 002°01'0 0.0
2016-Jul-20 20:33N 47°17' W 002°01'0 0.0
2016-Jul-20 19:31N 47°17' W 002°01'0 0.0
2016-Jul-20 18:24N 47°17' W 002°01'0 0.0
2016-Jul-20 17:32N 47°17' W 002°01'0 0.0
2016-Jul-20 16:33N 47°17' W 002°01'0 0.0
2016-Jul-20 15:33N 47°17' W 002°01'0 0.0
2016-Jul-20 14:32N 47°17' W 002°01'0 0.0
2016-Jul-20 13:33N 47°17' W 002°01'0 0.0
2016-Jul-20 12:33N 47°17' W 002°01'5 5.5
2016-Jul-20 11:33N 47°17' W 001°53'0 0.0
2016-Jul-20 10:33N 47°17' W 001°53'3 2.7
2016-Jul-20 09:33N 47°15' W 001°51'0 0.1
2016-Jul-20 08:33N 47°15' W 001°51'0 0.4
2016-Jul-20 07:33N 47°14' W 001°50'0 0.0
2016-Jul-20 06:34N 47°14' W 001°50'0 0.2
2016-Jul-20 05:33N 47°14' W 001°50'3 3.4
2016-Jul-20 04:33N 47°12' W 001°46'0 0.0
2016-Jul-20 03:33N 47°12' W 001°46'0 0.0
2016-Jul-20 02:33N 47°12' W 001°46'0 0.0
2016-Jul-20 01:33N 47°12' W 001°46'0 0.0
2016-Jul-20 00:34N 47°12' W 001°46'0 0.0
2016-Jul-19 23:33N 47°12' W 001°46'0 0.0
2016-Jul-19 22:33N 47°12' W 001°46'  

Dump ship's entire track history